createdAt,value
2023-04-10T00:01:53.465Z,100.00
2023-04-10T00:04:20.097Z,100.00
2023-04-10T00:06:48.958Z,100.00
2023-04-10T00:09:15.499Z,100.00
2023-04-10T00:11:42.084Z,100.00
2023-04-10T00:14:08.566Z,100.00
2023-04-10T00:16:35.159Z,100.00
2023-04-10T00:19:01.657Z,100.00
2023-04-10T00:21:28.315Z,100.00
2023-04-10T00:23:54.900Z,100.00
2023-04-10T00:26:22.384Z,100.00
2023-04-10T00:28:48.841Z,100.00
2023-04-10T00:31:15.526Z,100.00
2023-04-10T00:33:42.065Z,100.00
2023-04-10T00:36:08.691Z,100.00
2023-04-10T00:38:36.209Z,100.00
2023-04-10T00:41:02.708Z,100.00
2023-04-10T00:43:29.188Z,100.00
2023-04-10T00:45:55.985Z,100.00
2023-04-10T00:48:22.528Z,100.00
2023-04-10T00:50:49.063Z,100.00
2023-04-10T00:53:15.716Z,100.00
2023-04-10T00:55:42.277Z,100.00
2023-04-10T00:58:08.843Z,100.00
2023-04-10T01:00:35.374Z,100.00
2023-04-10T01:03:02.244Z,100.00
2023-04-10T01:05:35.662Z,100.00
2023-04-10T01:08:19.876Z,100.00
2023-04-10T01:11:02.075Z,100.00
2023-04-10T01:13:35.327Z,100.00
2023-04-10T01:16:06.146Z,100.00
2023-04-10T01:18:44.748Z,100.00
2023-04-10T01:21:12.447Z,100.00
2023-04-10T01:24:04.219Z,100.00
2023-04-10T01:26:47.758Z,100.00
2023-04-10T01:29:19.676Z,100.00
2023-04-10T01:31:55.232Z,100.00
2023-04-10T01:34:24.223Z,100.00
2023-04-10T01:36:54.296Z,100.00
2023-04-10T01:39:22.029Z,100.00
2023-04-10T01:41:51.917Z,100.00
2023-04-10T01:44:19.729Z,100.00
2023-04-10T01:46:48.605Z,100.00
2023-04-10T01:49:15.389Z,100.00
2023-04-10T01:51:42.429Z,100.00
2023-04-10T01:54:09.158Z,100.00
2023-04-10T01:56:35.994Z,100.00
2023-04-10T01:59:03.714Z,100.00
2023-04-10T02:01:30.716Z,100.00
2023-04-10T02:03:58.726Z,100.00
2023-04-10T02:06:41.925Z,100.00
2023-04-10T02:09:19.270Z,100.00
2023-04-10T02:11:54.371Z,100.00
2023-04-10T02:14:22.177Z,100.00
2023-04-10T02:16:52.919Z,100.00
2023-04-10T02:19:19.690Z,100.00
2023-04-10T02:21:47.297Z,100.00
2023-04-10T02:24:13.820Z,100.00
2023-04-10T02:26:51.694Z,100.00
2023-04-10T02:29:18.699Z,100.00
2023-04-10T02:31:46.152Z,100.00
2023-04-10T02:34:12.825Z,100.00
2023-04-10T02:36:39.867Z,100.00
2023-04-10T02:39:06.872Z,100.00
2023-04-10T02:41:33.356Z,100.00
2023-04-10T02:43:59.765Z,100.00
2023-04-10T02:46:26.388Z,100.00
2023-04-10T02:48:56.101Z,100.00
2023-04-10T02:51:22.606Z,100.00
2023-04-10T02:53:49.270Z,100.00
2023-04-10T02:56:15.681Z,100.00
2023-04-10T02:58:46.037Z,100.00
2023-04-10T03:01:12.812Z,100.00
2023-04-10T03:03:39.689Z,100.00
2023-04-10T03:06:08.029Z,100.00
2023-04-10T03:08:34.709Z,100.00
2023-04-10T03:11:01.280Z,100.00
2023-04-10T03:13:27.792Z,100.00
2023-04-10T03:15:54.372Z,100.00
2023-04-10T03:18:21.048Z,100.00
2023-04-10T03:20:47.697Z,100.00
2023-04-10T03:23:14.294Z,100.00
2023-04-10T03:25:41.285Z,100.00
2023-04-10T03:28:07.834Z,100.00
2023-04-10T03:30:36.957Z,100.00
2023-04-10T03:33:03.628Z,100.00
2023-04-10T03:35:30.145Z,100.00
2023-04-10T03:37:56.544Z,100.00
2023-04-10T03:40:23.070Z,100.00
2023-04-10T03:42:49.619Z,100.00
2023-04-10T03:45:16.216Z,100.00
2023-04-10T03:47:42.938Z,100.00
2023-04-10T03:50:09.950Z,100.00
2023-04-10T03:52:36.553Z,100.00
2023-04-10T03:55:03.019Z,100.00
2023-04-10T03:57:29.543Z,100.00
2023-04-10T03:59:56.365Z,100.00
2023-04-10T04:02:23.163Z,100.00
2023-04-10T04:04:49.924Z,100.00
2023-04-10T04:07:16.430Z,100.00
2023-04-10T04:09:42.950Z,100.00
2023-04-10T04:12:09.542Z,100.00
2023-04-10T04:14:36.058Z,100.00
2023-04-10T04:17:02.872Z,100.00
2023-04-10T04:19:29.881Z,100.00
2023-04-10T04:21:56.485Z,100.00
2023-04-10T04:24:23.026Z,100.00
2023-04-10T04:26:49.694Z,100.00
2023-04-10T04:29:16.378Z,100.00
2023-04-10T04:31:42.927Z,100.00
2023-04-10T04:34:09.422Z,100.00
2023-04-10T04:36:35.975Z,100.00
2023-04-10T04:39:02.610Z,100.00
2023-04-10T04:41:32.162Z,100.00
2023-04-10T04:43:59.981Z,100.00
2023-04-10T04:46:26.621Z,100.00
2023-04-10T04:48:53.150Z,100.00
2023-04-10T04:51:19.590Z,100.00
2023-04-10T04:53:46.080Z,100.00
2023-04-10T04:56:12.565Z,100.00
2023-04-10T04:58:39.022Z,100.00
2023-04-10T05:01:06.066Z,100.00
2023-04-10T05:03:32.907Z,100.00
2023-04-10T05:05:59.693Z,100.00
2023-04-10T05:08:26.510Z,100.00
2023-04-10T05:10:53.030Z,100.00
2023-04-10T05:13:19.520Z,100.00
2023-04-10T05:15:46.269Z,100.00
2023-04-10T05:18:14.084Z,100.00
2023-04-10T05:20:40.954Z,100.00
2023-04-10T05:23:07.416Z,100.00
2023-04-10T05:25:33.972Z,100.00
2023-04-10T05:28:00.686Z,100.00
2023-04-10T05:30:27.108Z,100.00
2023-04-10T05:32:53.685Z,100.00
2023-04-10T05:35:20.268Z,100.00
2023-04-10T05:37:46.724Z,100.00
2023-04-10T05:40:13.184Z,100.00
2023-04-10T05:42:39.654Z,100.00
2023-04-10T05:45:06.835Z,100.00
2023-04-10T05:47:33.445Z,100.00
2023-04-10T05:49:59.989Z,100.00
2023-04-10T05:52:26.713Z,100.00
2023-04-10T05:54:53.149Z,100.00
2023-04-10T05:57:19.611Z,100.00
2023-04-10T05:59:46.140Z,100.00
2023-04-10T06:02:12.603Z,100.00
2023-04-10T06:04:39.378Z,100.00
2023-04-10T06:07:06.108Z,100.00
2023-04-10T06:09:32.629Z,100.00
2023-04-10T06:11:59.126Z,100.00
2023-04-10T06:14:26.041Z,100.00
2023-04-10T06:16:52.543Z,100.00
2023-04-10T06:19:19.006Z,100.00
2023-04-10T06:21:45.559Z,100.00
2023-04-10T06:24:12.928Z,100.00
2023-04-10T06:26:39.875Z,100.00
2023-04-10T06:29:06.400Z,100.00
2023-04-10T06:31:33.988Z,100.00
2023-04-10T06:34:00.520Z,100.00
2023-04-10T06:36:27.729Z,100.00
2023-04-10T06:38:54.274Z,100.00
2023-04-10T06:41:21.112Z,100.00
2023-04-10T06:43:47.927Z,100.00
2023-04-10T06:46:16.031Z,100.00
2023-04-10T06:48:44.381Z,100.00
2023-04-10T06:51:12.251Z,100.00
2023-04-10T06:53:39.864Z,100.00
2023-04-10T06:56:07.058Z,100.00
2023-04-10T06:58:33.629Z,100.00
2023-04-10T07:01:04.404Z,100.00
2023-04-10T07:03:32.596Z,100.00
2023-04-10T07:05:59.845Z,100.00
2023-04-10T07:08:26.282Z,100.00
2023-04-10T07:10:52.827Z,100.00
2023-04-10T07:13:19.301Z,100.00
2023-04-10T07:15:45.885Z,100.00
2023-04-10T07:18:12.429Z,100.00
2023-04-10T07:20:38.869Z,100.00
2023-04-10T07:23:05.946Z,100.00
2023-04-10T07:25:32.375Z,100.00
2023-04-10T07:27:58.866Z,100.00
2023-04-10T07:30:25.999Z,100.00
2023-04-10T07:32:52.693Z,92.70
2023-04-10T07:35:20.263Z,90.75
2023-04-10T07:37:51.488Z,89.81
2023-04-10T07:40:18.158Z,86.60
2023-04-10T07:42:44.649Z,84.07
2023-04-10T07:45:11.430Z,82.71
2023-04-10T07:47:38.353Z,82.18
2023-04-10T07:50:05.548Z,80.97
2023-04-10T07:52:32.132Z,81.70
2023-04-10T07:55:01.964Z,78.91
2023-04-10T07:57:28.545Z,77.88
2023-04-10T07:59:55.087Z,77.12
2023-04-10T08:02:21.939Z,76.34
2023-04-10T08:04:48.731Z,75.03
2023-04-10T08:07:15.527Z,74.48
2023-04-10T08:09:42.063Z,74.25
2023-04-10T08:12:08.549Z,75.31
2023-04-10T08:14:35.018Z,73.40
2023-04-10T08:17:01.582Z,70.76
2023-04-10T08:19:28.226Z,69.20
2023-04-10T08:21:54.707Z,67.17
2023-04-10T08:24:22.947Z,68.40
2023-04-10T08:26:49.756Z,68.94
2023-04-10T08:29:16.350Z,67.91
2023-04-10T08:31:42.828Z,68.24
2023-04-10T08:34:09.325Z,66.38
2023-04-10T08:36:36.154Z,66.61
2023-04-10T08:39:02.790Z,65.37
2023-04-10T08:41:29.424Z,64.96
2023-04-10T08:43:57.382Z,61.02
2023-04-10T08:46:26.196Z,60.34
2023-04-10T08:49:02.819Z,57.64
2023-04-10T08:51:36.656Z,54.90
2023-04-10T08:54:08.423Z,54.21
2023-04-10T08:56:36.174Z,54.23
2023-04-10T08:59:03.554Z,54.67
2023-04-10T09:01:31.170Z,53.26
2023-04-10T09:03:58.536Z,54.48
2023-04-10T09:06:26.065Z,53.08
2023-04-10T09:08:52.693Z,53.54
2023-04-10T09:11:19.461Z,50.19
2023-04-10T09:13:46.939Z,50.90
2023-04-10T09:16:13.933Z,49.91
2023-04-10T09:18:43.418Z,50.13
2023-04-10T09:21:13.505Z,48.33
2023-04-10T09:23:41.812Z,48.62
2023-04-10T09:26:28.336Z,46.77
2023-04-10T09:29:09.203Z,46.16
2023-04-10T09:31:37.113Z,46.29
2023-04-10T09:34:17.663Z,47.06
2023-04-10T09:36:53.041Z,44.99
2023-04-10T09:39:19.609Z,46.45
2023-04-10T09:41:55.313Z,45.43
2023-04-10T09:44:36.432Z,44.73
2023-04-10T09:47:18.619Z,44.43
2023-04-10T09:49:55.985Z,44.55
2023-04-10T09:52:27.041Z,45.47
2023-04-10T09:54:55.436Z,44.73
2023-04-10T09:57:23.040Z,44.70
2023-04-10T09:59:54.964Z,45.00
2023-04-10T10:02:23.672Z,45.90
2023-04-10T10:04:51.018Z,45.92
2023-04-10T10:07:19.439Z,44.99
2023-04-10T10:09:48.237Z,44.45
2023-04-10T10:12:44.202Z,44.57
2023-04-10T10:15:19.670Z,44.62
2023-04-10T10:18:25.185Z,43.50
2023-04-10T10:20:52.307Z,42.24
2023-04-10T10:23:19.691Z,43.20
2023-04-10T10:25:46.778Z,43.20
2023-04-10T10:28:14.658Z,44.50
2023-04-10T10:30:42.262Z,42.36
2023-04-10T10:33:09.189Z,42.71
2023-04-10T10:35:36.438Z,42.80
2023-04-10T10:38:04.327Z,42.52
2023-04-10T10:40:41.491Z,40.93
2023-04-10T10:43:32.086Z,41.42
2023-04-10T10:46:13.253Z,41.16
2023-04-10T10:48:39.778Z,41.23
2023-04-10T10:51:06.686Z,41.73
2023-04-10T10:53:42.716Z,40.87
2023-04-10T10:56:18.451Z,40.57
2023-04-10T10:58:57.535Z,40.73
2023-04-10T11:01:24.500Z,40.01
2023-04-10T11:03:51.232Z,39.95
2023-04-10T11:06:19.683Z,39.36
2023-04-10T11:08:50.081Z,40.39
2023-04-10T11:11:17.727Z,39.35
2023-04-10T11:13:50.207Z,39.39
2023-04-10T11:16:16.916Z,39.99
2023-04-10T11:18:47.313Z,39.43
2023-04-10T11:21:19.989Z,37.89
2023-04-10T11:24:01.565Z,38.96
2023-04-10T11:26:42.754Z,39.73
2023-04-10T11:29:27.674Z,39.23
2023-04-10T11:31:59.417Z,39.53
2023-04-10T11:34:27.658Z,38.98
2023-04-10T11:36:54.766Z,38.47
2023-04-10T11:39:21.500Z,37.69
2023-04-10T11:41:50.430Z,39.14
2023-04-10T11:44:21.004Z,38.25
2023-04-10T11:46:47.920Z,38.52
2023-04-10T11:49:22.819Z,38.62
2023-04-10T11:51:51.086Z,37.46
2023-04-10T11:54:19.445Z,37.21
2023-04-10T11:57:01.070Z,37.42
2023-04-10T11:59:27.911Z,37.47
2023-04-10T12:02:05.380Z,37.53
2023-04-10T12:04:32.284Z,36.88
2023-04-10T12:06:59.175Z,37.93
2023-04-10T12:09:26.267Z,37.72
2023-04-10T12:12:05.572Z,37.13
2023-04-10T12:14:38.176Z,36.89
2023-04-10T12:17:07.021Z,37.95
2023-04-10T12:19:34.192Z,38.84
2023-04-10T12:22:04.086Z,37.31
2023-04-10T12:24:45.054Z,37.93
2023-04-10T12:27:21.863Z,37.65
2023-04-10T12:29:49.939Z,37.10
2023-04-10T12:32:16.718Z,37.82
2023-04-10T12:34:52.687Z,36.71
2023-04-10T12:37:20.083Z,36.98
2023-04-10T12:39:46.849Z,37.29
2023-04-10T12:42:21.343Z,36.85
2023-04-10T12:45:01.335Z,37.09
2023-04-10T12:47:29.359Z,36.25
2023-04-10T12:50:12.080Z,36.94
2023-04-10T12:52:43.009Z,36.96
2023-04-10T12:55:12.704Z,36.64
2023-04-10T12:57:43.079Z,36.44
2023-04-10T13:00:17.797Z,36.22
2023-04-10T13:02:45.148Z,36.60
2023-04-10T13:05:12.363Z,36.81
2023-04-10T13:07:39.596Z,36.56
2023-04-10T13:10:07.386Z,36.98
2023-04-10T13:12:36.160Z,36.94
2023-04-10T13:15:02.936Z,37.24
2023-04-10T13:17:29.550Z,37.43
2023-04-10T13:19:56.033Z,36.90
2023-04-10T13:22:22.746Z,36.05
2023-04-10T13:24:49.301Z,36.28
2023-04-10T13:27:16.016Z,35.86
2023-04-10T13:29:43.596Z,36.42
2023-04-10T13:32:10.752Z,36.26
2023-04-10T13:34:37.299Z,36.30
2023-04-10T13:37:03.860Z,37.27
2023-04-10T13:39:31.450Z,36.77
2023-04-10T13:41:58.938Z,36.69
2023-04-10T13:44:25.613Z,37.28
2023-04-10T13:46:52.292Z,37.61
2023-04-10T13:49:20.313Z,37.68
2023-04-10T13:51:49.647Z,38.22
2023-04-10T13:54:20.073Z,39.00
2023-04-10T13:56:46.853Z,38.69
2023-04-10T13:59:13.808Z,38.36
2023-04-10T14:01:40.424Z,38.40
2023-04-10T14:04:07.163Z,38.60
2023-04-10T14:06:34.203Z,38.96
2023-04-10T14:09:00.911Z,39.61
2023-04-10T14:11:27.361Z,39.85
2023-04-10T14:13:53.903Z,40.34
2023-04-10T14:16:20.596Z,39.56
2023-04-10T14:18:47.263Z,39.77
2023-04-10T14:21:13.794Z,40.17
2023-04-10T14:23:41.994Z,39.75
2023-04-10T14:26:08.596Z,40.95
2023-04-10T14:28:35.499Z,40.87
2023-04-10T14:31:02.022Z,40.91
2023-04-10T14:33:28.845Z,41.34
2023-04-10T14:35:55.597Z,40.42
2023-04-10T14:38:22.161Z,40.64
2023-04-10T14:40:50.290Z,41.02
2023-04-10T14:43:19.289Z,40.44
2023-04-10T14:45:45.996Z,40.25
2023-04-10T14:48:13.311Z,41.14
2023-04-10T14:50:40.091Z,42.00
2023-04-10T14:53:09.502Z,41.04
2023-04-10T14:55:37.082Z,42.14
2023-04-10T14:58:04.050Z,41.76
2023-04-10T15:00:30.624Z,41.68
2023-04-10T15:02:57.471Z,41.99
2023-04-10T15:05:25.517Z,42.82
2023-04-10T15:07:52.260Z,42.11
2023-04-10T15:10:18.884Z,42.15
2023-04-10T15:12:45.411Z,41.90
2023-04-10T15:15:11.979Z,42.61
2023-04-10T15:17:38.563Z,41.70
2023-04-10T15:20:05.788Z,41.99
2023-04-10T15:22:32.392Z,43.08
2023-04-10T15:24:58.968Z,42.21
2023-04-10T15:27:25.527Z,43.37
2023-04-10T15:29:52.118Z,42.75
2023-04-10T15:32:18.691Z,43.17
2023-04-10T15:34:45.334Z,43.65
2023-04-10T15:37:11.962Z,43.51
2023-04-10T15:39:38.656Z,44.17
2023-04-10T15:42:07.440Z,44.18
2023-04-10T15:44:33.915Z,43.81
2023-04-10T15:47:00.421Z,44.14
2023-04-10T15:49:36.994Z,44.51
2023-04-10T15:52:07.968Z,44.61
2023-04-10T15:54:35.012Z,44.52
2023-04-10T15:57:02.339Z,44.50
2023-04-10T15:59:29.352Z,44.56
2023-04-10T16:01:56.136Z,44.71
2023-04-10T16:04:23.022Z,44.96
2023-04-10T16:06:49.837Z,44.88
2023-04-10T16:09:25.398Z,45.72
2023-04-10T16:11:53.402Z,46.18
2023-04-10T16:14:20.185Z,46.22
2023-04-10T16:16:46.664Z,46.15
2023-04-10T16:19:13.197Z,46.03
2023-04-10T16:21:40.119Z,45.88
2023-04-10T16:24:06.832Z,45.78
2023-04-10T16:26:33.965Z,46.84
2023-04-10T16:29:00.866Z,46.02
2023-04-10T16:31:27.507Z,46.29
2023-04-10T16:33:54.186Z,46.96
2023-04-10T16:36:20.752Z,47.64
2023-04-10T16:38:49.727Z,47.72
2023-04-10T16:41:20.771Z,48.01
2023-04-10T16:43:47.716Z,48.06
2023-04-10T16:46:14.378Z,47.72
2023-04-10T16:48:41.061Z,47.87
2023-04-10T16:51:09.516Z,48.27
2023-04-10T16:53:36.253Z,48.73
2023-04-10T16:56:05.194Z,48.48
2023-04-10T16:58:33.843Z,48.90
2023-04-10T17:01:00.635Z,48.96
2023-04-10T17:03:27.385Z,49.39
2023-04-10T17:05:53.923Z,48.69
2023-04-10T17:08:20.595Z,48.98
2023-04-10T17:10:47.108Z,48.36
2023-04-10T17:13:13.640Z,49.02
2023-04-10T17:15:40.284Z,49.08
2023-04-10T17:18:06.782Z,48.57
2023-04-10T17:20:36.598Z,49.05
2023-04-10T17:23:03.177Z,49.34
2023-04-10T17:25:30.137Z,49.75
2023-04-10T17:27:57.243Z,49.77
2023-04-10T17:30:23.861Z,49.74
2023-04-10T17:32:50.418Z,50.03
2023-04-10T17:35:17.050Z,50.56
2023-04-10T17:37:43.467Z,50.82
2023-04-10T17:40:11.089Z,50.48
2023-04-10T17:42:37.607Z,50.68
2023-04-10T17:45:04.606Z,51.00
2023-04-10T17:47:31.784Z,51.10
2023-04-10T17:49:58.335Z,51.62
2023-04-10T17:52:24.949Z,51.41
2023-04-10T17:54:51.378Z,51.17
2023-04-10T17:57:18.005Z,50.72
2023-04-10T17:59:44.537Z,50.65
2023-04-10T18:02:11.162Z,50.67
2023-04-10T18:04:37.690Z,51.10
2023-04-10T18:07:04.252Z,50.90
2023-04-10T18:09:30.742Z,51.41
2023-04-10T18:11:57.398Z,51.64
2023-04-10T18:14:23.829Z,51.43
2023-04-10T18:16:50.358Z,51.89
2023-04-10T18:19:16.889Z,52.67
2023-04-10T18:21:43.929Z,52.71
2023-04-10T18:24:13.990Z,53.36
2023-04-10T18:26:40.772Z,53.48
2023-04-10T18:29:07.740Z,53.39
2023-04-10T18:31:34.344Z,54.32
2023-04-10T18:34:08.032Z,54.75
2023-04-10T18:36:35.064Z,54.80
2023-04-10T18:39:01.590Z,55.33
2023-04-10T18:41:28.111Z,55.99
2023-04-10T18:44:04.249Z,55.78
2023-04-10T18:46:32.610Z,56.01
2023-04-10T18:49:00.704Z,56.01
2023-04-10T18:51:27.775Z,56.39
2023-04-10T18:53:54.452Z,56.41
2023-04-10T18:56:21.050Z,57.02
2023-04-10T18:58:49.865Z,57.21
2023-04-10T19:01:17.873Z,56.87
2023-04-10T19:03:47.750Z,56.98
2023-04-10T19:06:17.304Z,57.65
2023-04-10T19:08:43.773Z,57.10
2023-04-10T19:11:10.444Z,57.79
2023-04-10T19:13:37.007Z,57.46
2023-04-10T19:16:04.523Z,57.66
2023-04-10T19:18:31.541Z,58.25
2023-04-10T19:20:59.295Z,58.23
2023-04-10T19:23:26.207Z,57.92
2023-04-10T19:25:54.041Z,58.33
2023-04-10T19:28:20.923Z,57.91
2023-04-10T19:30:47.391Z,58.08
2023-04-10T19:33:14.067Z,59.03
2023-04-10T19:35:40.703Z,58.57
2023-04-10T19:38:07.182Z,59.26
2023-04-10T19:40:33.660Z,58.04
2023-04-10T19:43:01.884Z,58.17
2023-04-10T19:45:29.319Z,58.05
2023-04-10T19:47:56.788Z,58.09
2023-04-10T19:50:23.748Z,56.86
2023-04-10T19:52:51.494Z,56.70
2023-04-10T19:55:19.118Z,57.62
2023-04-10T19:57:45.909Z,57.97
2023-04-10T20:00:13.063Z,56.89
2023-04-10T20:02:40.061Z,57.84
2023-04-10T20:05:07.179Z,57.79
2023-04-10T20:07:33.701Z,58.48
2023-04-10T20:10:02.625Z,58.29
2023-04-10T20:12:35.120Z,58.95
2023-04-10T20:15:02.482Z,57.64
2023-04-10T20:17:29.548Z,58.35
2023-04-10T20:19:56.453Z,58.55
2023-04-10T20:22:23.031Z,57.74
2023-04-10T20:24:49.514Z,57.19
2023-04-10T20:27:16.018Z,58.03
2023-04-10T20:29:42.656Z,58.57
2023-04-10T20:32:09.719Z,58.66
2023-04-10T20:34:36.720Z,57.84
2023-04-10T20:37:03.480Z,58.59
2023-04-10T20:39:30.129Z,58.15
2023-04-10T20:41:57.384Z,57.86
2023-04-10T20:44:23.902Z,57.13
2023-04-10T20:46:50.785Z,57.90
2023-04-10T20:49:17.554Z,56.90
2023-04-10T20:51:44.363Z,57.64
2023-04-10T20:54:11.799Z,56.49
2023-04-10T20:56:43.478Z,57.18
2023-04-10T20:59:11.184Z,57.00
2023-04-10T21:01:38.348Z,57.57
2023-04-10T21:04:05.410Z,57.98
2023-04-10T21:06:33.215Z,58.15
2023-04-10T21:08:59.791Z,58.70
2023-04-10T21:11:27.414Z,59.34
2023-04-10T21:13:54.279Z,59.88
2023-04-10T21:16:21.075Z,60.40
2023-04-10T21:18:47.915Z,60.15
2023-04-10T21:21:14.691Z,59.75
2023-04-10T21:23:41.250Z,60.27
2023-04-10T21:26:07.848Z,61.05
2023-04-10T21:28:34.413Z,61.89
2023-04-10T21:31:01.003Z,60.88
2023-04-10T21:33:27.496Z,60.26
2023-04-10T21:35:54.030Z,60.53
2023-04-10T21:38:20.823Z,60.58
2023-04-10T21:40:51.421Z,61.21
2023-04-10T21:43:18.308Z,60.89
2023-04-10T21:45:44.844Z,60.86
2023-04-10T21:48:11.451Z,61.49
2023-04-10T21:50:38.008Z,61.34
2023-04-10T21:53:04.568Z,60.71
2023-04-10T21:55:31.039Z,61.72
2023-04-10T21:57:57.714Z,60.55
2023-04-10T22:00:24.382Z,59.38
2023-04-10T22:02:51.839Z,59.93
2023-04-10T22:05:18.523Z,58.39
2023-04-10T22:07:45.012Z,58.29
2023-04-10T22:10:11.571Z,57.41
2023-04-10T22:12:38.124Z,57.98
2023-04-10T22:15:06.707Z,57.90
2023-04-10T22:17:33.762Z,57.59
2023-04-10T22:20:00.607Z,57.29
2023-04-10T22:22:27.014Z,58.15
2023-04-10T22:24:53.477Z,58.06
2023-04-10T22:27:19.998Z,57.95
2023-04-10T22:29:56.275Z,58.06
2023-04-10T22:32:29.075Z,57.69
2023-04-10T22:34:55.718Z,57.80
2023-04-10T22:37:22.272Z,56.81
2023-04-10T22:39:48.823Z,56.81
2023-04-10T22:42:15.775Z,57.20
2023-04-10T22:44:42.299Z,56.79
2023-04-10T22:47:08.696Z,56.73
2023-04-10T22:49:35.441Z,56.71
2023-04-10T22:52:01.991Z,56.20
2023-04-10T22:54:29.375Z,55.47
2023-04-10T22:56:57.921Z,56.44
2023-04-10T22:59:24.417Z,56.89
2023-04-10T23:01:51.443Z,57.55
2023-04-10T23:04:18.282Z,57.10
2023-04-10T23:06:44.862Z,56.49
2023-04-10T23:09:11.668Z,56.63
2023-04-10T23:11:38.412Z,56.80
2023-04-10T23:14:04.879Z,56.39
2023-04-10T23:16:31.404Z,55.43
2023-04-10T23:18:58.003Z,55.99
2023-04-10T23:21:24.503Z,56.81
2023-04-10T23:23:51.014Z,56.65
2023-04-10T23:26:17.453Z,56.60
2023-04-10T23:28:43.900Z,58.16
2023-04-10T23:31:10.414Z,57.83
2023-04-10T23:33:36.888Z,58.70
2023-04-10T23:36:03.678Z,58.16
2023-04-10T23:38:30.112Z,58.66
2023-04-10T23:40:56.628Z,58.77
2023-04-10T23:43:23.157Z,58.20
2023-04-10T23:45:49.658Z,58.25
2023-04-10T23:48:16.251Z,59.82
2023-04-10T23:50:42.766Z,60.40
2023-04-10T23:53:09.322Z,60.67
2023-04-10T23:55:36.172Z,61.92
2023-04-10T23:58:02.890Z,62.15
